Time;durP1;ratioP1;P1;durP2;ratioP2;P2;SDS_P1;SDS_P2;PMS_P1;PMS_P2;Temp;Humidity;BMP_temperature;BMP_pressure;BME280_temperature;BME280_humidity;BME280_pressure;Samples;Min_cycle;Max_cycle;Signal;HPM_P1;HPM_P2
2022/09/26 00:01:08;;;;;;;7.13;6.22;;;11.20;99.90;;;;;;6181415;23;20128;-73
2022/09/26 00:03:35;;;;;;;7.95;5.55;;;11.20;99.90;;;;;;6181120;23;20007;-74
2022/09/26 00:06:06;;;;;;;5.75;5.15;;;11.30;99.90;;;;;;6181555;23;20323;-73
2022/09/26 00:08:33;;;;;;;8.38;5.70;;;11.30;99.90;;;;;;6181367;23;20001;-73
2022/09/26 00:11:00;;;;;;;7.10;5.63;;;11.40;99.90;;;;;;6181086;23;20384;-73
2022/09/26 00:13:32;;;;;;;9.63;5.63;;;11.30;99.90;;;;;;6180662;23;20024;-73
2022/09/26 00:15:57;;;;;;;6.57;5.45;;;11.40;99.90;;;;;;6181265;23;20012;-73
2022/09/26 00:18:24;;;;;;;7.43;5.05;;;11.30;99.90;;;;;;6181142;23;20005;-73
2022/09/26 00:20:49;;;;;;;6.60;5.43;;;11.30;99.90;;;;;;6181185;23;20407;-74
2022/09/26 00:23:15;;;;;;;6.82;4.95;;;11.30;99.90;;;;;;6181599;23;20076;-73
2022/09/26 00:25:49;;;;;;;6.22;5.03;;;11.40;99.90;;;;;;6181149;23;19997;-74
2022/09/26 00:28:15;;;;;;;6.72;4.97;;;11.40;99.90;;;;;;6179816;23;20005;-73
2022/09/26 00:30:42;;;;;;;9.43;4.63;;;11.50;99.90;;;;;;6181391;23;20016;-73
2022/09/26 00:33:08;;;;;;;6.03;4.45;;;11.50;99.90;;;;;;6180841;23;20423;-74
2022/09/26 00:35:33;;;;;;;5.18;4.20;;;11.60;99.90;;;;;;6181070;23;20004;-73
2022/09/26 00:37:59;;;;;;;6.97;5.00;;;11.50;99.90;;;;;;6180864;23;20374;-74
2022/09/26 00:40:26;;;;;;;7.03;4.88;;;11.70;99.90;;;;;;6180936;23;20001;-74
2022/09/26 00:42:53;;;;;;;7.47;5.07;;;11.60;99.90;;;;;;6180779;23;19997;-73
2022/09/26 00:45:19;;;;;;;6.35;3.88;;;11.70;99.90;;;;;;6181301;23;20024;-74
2022/09/26 00:48:05;;;;;;;4.78;4.28;;;11.70;99.90;;;;;;6179387;23;20041;-74
2022/09/26 00:50:36;;;;;;;7.25;4.57;;;11.70;99.90;;;;;;6180729;23;20002;-74
2022/09/26 00:53:13;;;;;;;6.68;4.32;;;11.70;99.90;;;;;;6181190;23;20012;-74
2022/09/26 00:55:43;;;;;;;6.07;4.75;;;11.80;99.90;;;;;;6180688;23;20077;-74
2022/09/26 00:58:15;;;;;;;10.88;4.97;;;11.80;99.90;;;;;;6179711;23;20443;-74
2022/09/26 01:00:43;;;;;;;5.70;5.07;;;11.80;99.90;;;;;;6181293;23;20415;-74
2022/09/26 01:03:08;;;;;;;7.03;4.90;;;11.70;99.90;;;;;;6181364;23;20024;-74
2022/09/26 01:05:36;;;;;;;9.85;5.20;;;11.80;99.90;;;;;;6181222;23;20402;-75
2022/09/26 01:08:04;;;;;;;7.20;4.88;;;11.80;99.90;;;;;;6181276;23;20276;-74
2022/09/26 01:10:30;;;;;;;6.60;5.50;;;11.90;99.90;;;;;;6180916;23;20525;-75
2022/09/26 01:12:58;;;;;;;5.68;4.78;;;11.90;99.90;;;;;;6181013;23;20542;-74
2022/09/26 01:15:24;;;;;;;6.03;5.32;;;11.90;99.90;;;;;;6181071;23;20005;-75
2022/09/26 01:17:50;;;;;;;9.00;5.25;;;11.90;99.90;;;;;;6181011;23;20443;-75
2022/09/26 01:20:31;;;;;;;8.63;4.93;;;11.80;99.90;;;;;;6181034;23;20040;-74
2022/09/26 01:23:23;;;;;;;6.60;5.88;;;11.80;99.90;;;;;;6181674;23;20090;-74
2022/09/26 01:26:07;;;;;;;6.65;5.72;;;11.70;99.90;;;;;;6182440;23;20005;-75
2022/09/26 01:28:35;;;;;;;;;;;11.80;99.90;;;;;;6182389;23;20025;-75
2022/09/26 01:31:20;;;;;;;12.25;5.70;;;11.70;99.90;;;;;;6180227;23;19900;-74
2022/09/26 01:33:59;;;;;;;7.78;6.13;;;11.70;99.90;;;;;;6180330;23;20084;-74
2022/09/26 01:36:45;;;;;;;6.70;5.25;;;11.70;99.90;;;;;;6180484;23;20105;-74
2022/09/26 01:39:38;;;;;;;7.03;5.88;;;11.80;99.90;;;;;;6180285;23;20466;-74
2022/09/26 01:42:29;;;;;;;7.53;5.68;;;11.70;99.90;;;;;;6178767;23;20076;-74
2022/09/26 01:45:11;;;;;;;10.90;5.80;;;11.70;99.90;;;;;;6180201;23;20052;-74
2022/09/26 01:47:47;;;;;;;8.35;7.38;;;11.70;99.90;;;;;;6182618;23;20001;-74
2022/09/26 01:50:49;;;;;;;8.32;5.45;;;11.60;99.90;;;;;;6182903;23;20008;-74
2022/09/26 01:53:30;;;;;;;6.45;5.78;;;11.70;99.90;;;;;;6120422;23;20001;-74
2022/09/26 01:56:02;;;;;;;7.18;5.07;;;11.60;99.90;;;;;;6181868;23;20020;-74
2022/09/26 01:58:38;;;;;;;7.32;5.68;;;11.70;99.90;;;;;;6182923;23;20063;-74
2022/09/26 02:01:09;;;;;;;8.02;5.70;;;11.70;99.90;;;;;;6183253;23;20379;-74
2022/09/26 02:03:38;;;;;;;16.17;6.95;;;11.70;99.90;;;;;;6182639;23;20001;-74
2022/09/26 02:06:12;;;;;;;10.20;6.22;;;12.00;99.90;;;;;;6182875;23;20319;-74
2022/09/26 02:08:50;;;;;;;5.95;5.40;;;12.00;99.90;;;;;;6181952;23;20005;-74
2022/09/26 02:11:18;;;;;;;7.60;6.47;;;11.60;99.90;;;;;;6182746;23;19997;-74
2022/09/26 02:14:08;;;;;;;8.57;5.50;;;11.70;99.90;;;;;;6182385;23;20009;-74
2022/09/26 02:16:40;;;;;;;7.55;5.20;;;11.60;99.90;;;;;;6182506;23;20081;-74
2022/09/26 02:19:15;;;;;;;6.63;5.93;;;11.70;99.90;;;;;;6182788;23;20446;-74
2022/09/26 02:21:42;;;;;;;9.80;5.55;;;11.60;99.90;;;;;;6182196;23;20422;-74
2022/09/26 02:24:08;;;;;;;12.05;5.55;;;11.60;99.90;;;;;;6182214;23;20009;-74
2022/09/26 02:26:33;;;;;;;8.70;5.82;;;11.60;99.90;;;;;;6182395;23;20033;-75
2022/09/26 02:29:00;;;;;;;8.68;5.68;;;11.50;99.90;;;;;;6181942;23;20019;-75
2022/09/26 02:31:29;;;;;;;8.63;5.72;;;11.60;99.90;;;;;;6180706;23;20005;-74
2022/09/26 02:33:55;;;;;;;7.20;5.15;;;11.60;99.90;;;;;;6180189;23;20063;-74
2022/09/26 02:36:22;;;;;;;6.53;4.28;;;11.60;99.90;;;;;;6181532;23;20000;-74
2022/09/26 02:38:47;;;;;;;6.65;4.22;;;11.50;99.90;;;;;;6182031;23;20005;-74
2022/09/26 02:41:27;;;;;;;6.97;4.75;;;11.60;99.90;;;;;;6182656;23;20068;-74
2022/09/26 02:44:35;;;;;;;6.20;5.40;;;11.60;99.90;;;;;;6181925;23;20057;-74
2022/09/26 02:47:08;;;;;;;6.40;4.65;;;11.60;99.90;;;;;;6182304;23;20020;-74
2022/09/26 02:49:44;;;;;;;9.75;5.13;;;11.60;99.90;;;;;;6182676;23;19997;-75
2022/09/26 02:52:12;;;;;;;6.68;4.55;;;11.60;99.90;;;;;;6181494;23;20438;-75
2022/09/26 02:54:48;;;;;;;5.32;4.38;;;11.70;99.90;;;;;;6182067;23;19997;-75
2022/09/26 02:57:16;;;;;;;8.32;4.13;;;11.60;99.90;;;;;;6182190;23;20105;-74
2022/09/26 03:00:00;;;;;;;8.10;5.25;;;11.80;99.90;;;;;;6181924;23;20020;-74
2022/09/26 03:02:38;;;;;;;9.60;6.53;;;11.60;99.90;;;;;;6182094;23;20001;-75
2022/09/26 03:05:25;;;;;;;5.85;4.38;;;11.70;99.90;;;;;;6182025;23;20406;-75
2022/09/26 03:07:58;;;;;;;7.43;4.32;;;11.60;99.90;;;;;;6181701;23;20435;-76
2022/09/26 03:10:26;;;;;;;7.63;4.07;;;11.70;99.90;;;;;;6182026;23;20065;-75
2022/09/26 03:12:53;;;;;;;9.70;5.20;;;11.70;99.90;;;;;;6181891;23;20012;-75
2022/09/26 03:15:20;;;;;;;8.38;4.85;;;11.70;99.90;;;;;;6181910;23;20004;-75
2022/09/26 03:17:52;;;;;;;10.15;5.43;;;11.70;99.90;;;;;;6181729;23;20012;-75
2022/09/26 03:20:24;;;;;;;7.30;5.10;;;11.60;99.90;;;;;;6181247;23;20008;-75
2022/09/26 03:22:50;;;;;;;8.75;5.25;;;11.60;99.90;;;;;;6181522;23;20005;-76
2022/09/26 03:25:23;;;;;;;10.63;5.18;;;11.60;99.90;;;;;;6182113;23;20008;-75
2022/09/26 03:27:49;;;;;;;8.17;4.70;;;11.60;99.90;;;;;;6181349;23;20059;-75
2022/09/26 03:30:16;;;;;;;10.20;4.88;;;11.70;99.90;;;;;;6182072;23;20252;-75
2022/09/26 03:32:42;;;;;;;8.52;4.22;;;11.60;99.90;;;;;;6181529;23;20005;-75
2022/09/26 03:35:09;;;;;;;4.55;4.15;;;11.50;99.90;;;;;;6181220;23;20007;-75
2022/09/26 03:37:36;;;;;;;8.93;4.07;;;11.50;99.90;;;;;;6181818;23;20486;-75
2022/09/26 03:40:07;;;;;;;9.20;4.45;;;11.50;99.90;;;;;;6181377;23;20501;-75
2022/09/26 03:42:33;;;;;;;5.93;4.28;;;11.50;99.90;;;;;;6181820;23;20466;-75
2022/09/26 03:44:59;;;;;;;8.27;4.00;;;11.40;99.90;;;;;;6181385;23;20001;-75
2022/09/26 03:47:25;;;;;;;6.20;4.57;;;11.50;99.90;;;;;;6181789;23;20001;-75
2022/09/26 03:49:51;;;;;;;7.88;4.47;;;11.40;99.90;;;;;;6181008;23;20031;-75
2022/09/26 03:52:17;;;;;;;7.05;5.03;;;11.40;99.90;;;;;;6181506;23;20023;-75
2022/09/26 03:54:42;;;;;;;7.75;4.00;;;11.50;99.90;;;;;;6181588;23;20013;-75
2022/09/26 03:57:11;;;;;;;7.22;4.88;;;11.40;99.90;;;;;;6181776;23;20063;-75
2022/09/26 03:59:37;;;;;;;5.00;4.03;;;11.40;99.90;;;;;;6181658;23;20346;-75
2022/09/26 04:02:02;;;;;;;5.03;4.53;;;11.40;99.90;;;;;;6181154;23;20009;-75
2022/09/26 04:04:28;;;;;;;4.57;4.10;;;11.30;99.90;;;;;;6181116;23;20008;-75
2022/09/26 04:06:54;;;;;;;10.77;4.65;;;11.30;99.90;;;;;;6181421;23;20442;-75
2022/09/26 04:09:19;;;;;;;6.72;4.07;;;11.30;99.90;;;;;;6181755;23;20001;-76
2022/09/26 04:11:45;;;;;;;6.85;4.47;;;11.20;99.90;;;;;;6181457;23;20005;-75
2022/09/26 04:14:11;;;;;;;6.40;3.63;;;11.30;99.90;;;;;;6181454;23;19997;-75
2022/09/26 04:16:37;;;;;;;7.25;3.60;;;11.30;99.90;;;;;;6181561;23;20335;-75
2022/09/26 04:19:03;;;;;;;9.25;4.22;;;11.30;99.90;;;;;;6181121;23;20076;-75
2022/09/26 04:21:28;;;;;;;8.45;3.72;;;11.20;99.90;;;;;;6181265;23;20102;-75
2022/09/26 04:23:55;;;;;;;7.03;4.28;;;11.30;99.90;;;;;;6180441;23;20419;-75
2022/09/26 04:26:22;;;;;;;6.88;3.35;;;11.20;99.90;;;;;;6181164;23;20326;-75
2022/09/26 04:28:50;;;;;;;7.40;3.85;;;11.30;99.90;;;;;;6180886;23;20080;-75
2022/09/26 04:31:17;;;;;;;7.00;3.55;;;11.30;99.90;;;;;;6181673;23;20423;-75
2022/09/26 04:33:44;;;;;;;9.25;3.58;;;11.30;99.90;;;;;;6181072;23;20007;-75
2022/09/26 04:36:14;;;;;;;4.60;3.15;;;11.20;99.90;;;;;;6182224;23;20011;-75
2022/09/26 04:38:40;;;;;;;6.72;3.95;;;12.90;99.90;;;;;;6181689;23;20024;-75
2022/09/26 04:41:14;;;;;;;5.10;3.55;;;11.20;99.90;;;;;;6181439;23;20005;-76
2022/09/26 04:43:40;;;;;;;4.72;2.72;;;11.20;99.90;;;;;;6181679;23;20374;-75
2022/09/26 04:46:10;;;;;;;3.75;3.00;;;11.20;99.90;;;;;;6181616;23;20009;-75
2022/09/26 04:48:36;;;;;;;6.07;3.05;;;11.20;99.90;;;;;;6181639;23;20055;-75
2022/09/26 04:51:07;;;;;;;9.63;4.20;;;11.20;99.90;;;;;;6181725;23;20001;-75
2022/09/26 04:53:33;;;;;;;6.70;3.65;;;11.30;99.90;;;;;;6181659;23;20001;-76
2022/09/26 04:55:59;;;;;;;6.47;3.13;;;11.20;99.90;;;;;;6181383;23;20028;-75
2022/09/26 04:58:25;;;;;;;3.13;2.67;;;11.20;99.90;;;;;;6182465;23;20008;-75
2022/09/26 05:00:51;;;;;;;5.63;3.17;;;11.20;99.90;;;;;;6183261;23;19998;-75
2022/09/26 05:03:17;;;;;;;6.18;3.13;;;11.20;99.90;;;;;;6182849;23;20001;-76
2022/09/26 05:05:46;;;;;;;7.18;3.40;;;11.20;99.90;;;;;;6183395;23;20032;-75
2022/09/26 05:08:12;;;;;;;9.05;3.45;;;11.20;99.90;;;;;;6183680;23;20383;-75
2022/09/26 05:10:38;;;;;;;9.50;3.42;;;11.30;99.90;;;;;;6183389;23;20001;-76
2022/09/26 05:13:05;;;;;;;8.90;3.22;;;11.20;99.90;;;;;;6183265;23;20091;-75
2022/09/26 05:15:32;;;;;;;4.95;2.88;;;11.20;99.90;;;;;;6183437;23;20001;-76
2022/09/26 05:17:58;;;;;;;6.20;3.28;;;11.30;99.90;;;;;;6182337;23;20005;-75
2022/09/26 05:20:28;;;;;;;5.95;3.15;;;11.80;99.90;;;;;;6183559;23;20009;-74
2022/09/26 05:23:01;;;;;;;4.60;3.30;;;11.20;99.90;;;;;;6182743;23;20064;-74
2022/09/26 05:28:13;;;;;;;6.88;2.97;;;11.10;99.90;;;;;;6183012;23;20020;-74
2022/09/26 05:30:39;;;;;;;7.43;3.25;;;10.80;99.90;;;;;;6182504;23;20303;-74
2022/09/26 05:33:05;;;;;;;7.80;3.78;;;11.10;99.90;;;;;;6182469;23;20153;-74
2022/09/26 05:35:34;;;;;;;4.18;3.10;;;12.80;99.90;;;;;;6183095;23;20323;-74
2022/09/26 05:38:03;;;;;;;4.85;2.90;;;11.00;99.90;;;;;;6182924;23;20039;-75
2022/09/26 05:43:13;;;;;;;;;;;11.00;99.90;;;;;;6183575;23;20035;-74
2022/09/26 05:45:39;;;;;;;5.75;3.63;;;11.00;99.90;;;;;;6182303;23;20514;-74
2022/09/26 05:48:05;;;;;;;5.57;3.75;;;11.00;99.90;;;;;;6183015;23;20005;-74
2022/09/26 05:50:32;;;;;;;5.50;4.22;;;10.90;99.90;;;;;;6182949;23;20009;-75
2022/09/26 05:52:59;;;;;;;9.73;4.20;;;10.70;99.90;;;;;;6182597;23;20008;-74
2022/09/26 05:55:28;;;;;;;5.80;3.88;;;10.90;99.90;;;;;;6181277;23;20093;-75
2022/09/26 05:57:59;;;;;;;4.57;3.42;;;11.00;99.90;;;;;;6182724;23;20024;-74
2022/09/26 06:00:26;;;;;;;6.30;4.07;;;11.00;99.90;;;;;;6182293;23;20001;-73
2022/09/26 06:03:05;;;;;;;5.38;3.85;;;11.00;99.90;;;;;;6180807;23;20453;-72
2022/09/26 06:05:32;;;;;;;6.00;4.05;;;11.00;99.90;;;;;;6182589;23;20035;-73
2022/09/26 06:08:00;;;;;;;5.93;3.45;;;12.20;99.90;;;;;;6182166;23;20032;-72
2022/09/26 06:10:26;;;;;;;7.53;3.45;;;11.00;99.90;;;;;;6181886;23;20084;-72
2022/09/26 06:12:52;;;;;;;8.43;3.60;;;12.00;99.90;;;;;;6182317;23;20048;-72
2022/09/26 06:15:18;;;;;;;7.47;3.97;;;11.00;99.90;;;;;;6182135;23;20000;-73
2022/09/26 06:17:44;;;;;;;8.88;3.42;;;13.10;99.90;;;;;;6182187;23;20419;-72
2022/09/26 06:20:09;;;;;;;7.88;3.42;;;11.20;99.90;;;;;;6182018;23;20012;-73
2022/09/26 06:22:42;;;;;;;6.13;3.10;;;11.10;99.90;;;;;;6180646;23;20001;-72
2022/09/26 06:25:10;;;;;;;6.68;3.70;;;11.10;99.90;;;;;;6182723;23;20376;-73
2022/09/26 06:27:39;;;;;;;4.95;3.08;;;11.20;99.90;;;;;;6181605;23;20370;-73
2022/09/26 06:30:07;;;;;;;6.68;3.33;;;11.20;99.90;;;;;;6181960;23;20013;-74
2022/09/26 06:32:35;;;;;;;10.63;3.28;;;11.20;99.90;;;;;;6182605;23;20005;-72
2022/09/26 06:35:01;;;;;;;5.57;4.13;;;11.20;99.90;;;;;;6182696;23;20072;-73
2022/09/26 06:37:27;;;;;;;5.93;3.28;;;11.20;99.90;;;;;;6182801;23;20001;-72
2022/09/26 06:39:52;;;;;;;8.93;3.38;;;11.20;99.90;;;;;;6182454;23;20004;-73
2022/09/26 06:42:18;;;;;;;6.22;2.92;;;11.40;99.90;;;;;;6182948;23;20021;-73
2022/09/26 06:44:43;;;;;;;4.75;3.00;;;11.30;99.90;;;;;;6182078;23;20434;-72
2022/09/26 06:47:11;;;;;;;4.65;3.13;;;11.40;99.90;;;;;;6182158;23;20446;-74
2022/09/26 06:49:37;;;;;;;4.13;3.28;;;11.50;99.90;;;;;;6180452;23;20001;-74
2022/09/26 06:52:03;;;;;;;9.27;3.28;;;11.50;99.90;;;;;;6182063;23;20106;-74
2022/09/26 06:54:29;;;;;;;5.03;3.22;;;11.40;99.90;;;;;;6177864;23;20001;-74
2022/09/26 06:56:55;;;;;;;7.93;3.60;;;11.60;99.90;;;;;;6178693;23;20012;-74
2022/09/26 06:59:22;;;;;;;9.73;4.50;;;11.60;99.90;;;;;;6178594;23;20080;-74
2022/09/26 07:01:47;;;;;;;8.27;3.60;;;11.70;99.90;;;;;;6181435;23;20300;-73
2022/09/26 07:04:14;;;;;;;7.47;3.88;;;11.60;99.90;;;;;;6181640;23;20011;-73
2022/09/26 07:06:40;;;;;;;7.22;3.72;;;11.60;99.90;;;;;;6180814;23;20554;-73
2022/09/26 07:09:06;;;;;;;6.68;3.60;;;11.60;99.90;;;;;;6180137;23;19997;-73
2022/09/26 07:11:32;;;;;;;6.57;3.63;;;11.60;99.90;;;;;;6179941;23;20092;-73
2022/09/26 07:14:00;;;;;;;9.82;5.07;;;11.60;99.90;;;;;;6180761;23;20005;-74
2022/09/26 07:16:27;;;;;;;6.20;3.95;;;11.60;99.90;;;;;;6180808;23;20001;-73
2022/09/26 07:18:53;;;;;;;8.82;3.60;;;11.60;99.90;;;;;;6179304;23;20011;-73
2022/09/26 07:21:18;;;;;;;5.13;3.05;;;11.70;99.90;;;;;;6179861;23;20001;-73
2022/09/26 07:23:44;;;;;;;8.27;3.85;;;11.70;99.90;;;;;;6181435;23;20058;-73
2022/09/26 07:26:10;;;;;;;9.55;3.55;;;11.60;99.90;;;;;;6177727;23;20013;-73
2022/09/26 07:28:37;;;;;;;9.65;3.50;;;11.70;99.90;;;;;;6177004;23;20217;-73
2022/09/26 07:31:03;;;;;;;6.85;3.55;;;11.70;99.90;;;;;;6180483;23;20001;-74
2022/09/26 07:33:28;;;;;;;5.18;3.55;;;11.70;99.90;;;;;;6180883;23;20012;-73
2022/09/26 07:35:56;;;;;;;6.57;3.78;;;11.70;99.90;;;;;;6181313;23;20008;-74
2022/09/26 07:38:22;;;;;;;7.25;3.75;;;11.70;99.90;;;;;;6179941;23;20009;-74
2022/09/26 07:40:53;;;;;;;5.55;3.20;;;11.70;99.90;;;;;;6181220;23;20112;-74
2022/09/26 07:43:19;;;;;;;7.80;4.25;;;11.80;99.90;;;;;;6181726;23;20025;-74
2022/09/26 07:51:14;;;;;;;5.78;3.33;;;12.00;99.90;;;;;;6177856;23;19912;-73
2022/09/26 07:53:40;;;;;;;5.43;3.13;;;12.10;99.90;;;;;;6180323;23;20005;-73
2022/09/26 07:56:10;;;;;;;4.22;3.33;;;11.90;99.90;;;;;;6179049;23;20671;-73
2022/09/26 07:58:40;;;;;;;7.00;2.83;;;12.10;99.90;;;;;;6180788;23;20027;-73
2022/09/26 08:01:10;;;;;;;7.57;3.40;;;12.20;99.90;;;;;;6179681;23;20462;-73
2022/09/26 08:03:37;;;;;;;8.95;3.35;;;12.10;99.90;;;;;;6180762;23;20076;-73
2022/09/26 08:06:03;;;;;;;4.63;2.88;;;12.10;99.90;;;;;;6180380;23;20016;-73
2022/09/26 08:08:29;;;;;;;4.72;3.53;;;12.10;99.90;;;;;;6180277;23;20067;-73
2022/09/26 08:10:56;;;;;;;5.78;2.83;;;12.20;99.90;;;;;;6179466;23;20001;-72
2022/09/26 08:13:26;;;;;;;4.78;3.25;;;12.20;99.90;;;;;;6178773;23;20016;-72
2022/09/26 08:15:52;;;;;;;4.90;2.58;;;12.10;99.90;;;;;;6180763;23;20002;-72
2022/09/26 08:18:18;;;;;;;5.53;3.40;;;12.10;99.90;;;;;;6181362;23;20036;-71
2022/09/26 08:20:46;;;;;;;9.73;3.33;;;12.20;99.90;;;;;;6180494;23;20005;-73
2022/09/26 08:23:13;;;;;;;6.90;2.58;;;12.30;99.90;;;;;;6178622;23;20056;-73
2022/09/26 08:25:39;;;;;;;4.28;2.22;;;12.30;99.90;;;;;;6179763;23;20005;-71
2022/09/26 08:28:11;;;;;;;6.97;2.78;;;13.20;99.90;;;;;;6180574;23;20005;-71
2022/09/26 08:30:36;;;;;;;5.85;2.53;;;12.20;99.90;;;;;;6180946;23;20004;-72
2022/09/26 08:33:02;;;;;;;5.53;3.05;;;12.30;99.90;;;;;;6178981;23;19997;-73
2022/09/26 08:35:31;;;;;;;5.72;2.72;;;12.30;99.90;;;;;;6180633;23;19997;-73
2022/09/26 08:38:01;;;;;;;6.03;2.92;;;12.30;99.90;;;;;;6180039;23;20083;-73
2022/09/26 08:40:36;;;;;;;5.93;2.50;;;12.50;99.90;;;;;;6179771;23;20072;-73
2022/09/26 08:43:30;;;;;;;4.63;3.00;;;12.40;99.90;;;;;;6180959;23;20005;-73
2022/09/26 08:49:14;;;;;;;5.25;3.35;;;12.50;99.90;;;;;;6191037;23;20005;-73
2022/09/26 08:51:46;;;;;;;5.63;3.08;;;12.60;99.90;;;;;;6180915;23;20080;-73
2022/09/26 08:54:35;;;;;;;8.73;2.67;;;12.60;99.90;;;;;;6180369;23;20016;-73
2022/09/26 08:57:05;;;;;;;3.72;2.58;;;12.60;99.90;;;;;;6179274;23;20067;-73
2022/09/26 08:59:40;;;;;;;6.28;2.78;;;12.60;99.90;;;;;;6179395;23;20025;-73
2022/09/26 09:02:33;;;;;;;6.88;2.67;;;12.60;99.90;;;;;;6180901;23;20059;-72
2022/09/26 09:05:05;;;;;;;4.90;2.28;;;12.60;99.90;;;;;;6180777;23;20374;-73
2022/09/26 09:07:31;;;;;;;10.93;3.70;;;12.60;99.90;;;;;;6179885;23;20044;-73
2022/09/26 09:10:01;;;;;;;5.88;3.20;;;12.60;99.90;;;;;;6178884;23;20001;-73
2022/09/26 09:12:48;;;;;;;6.40;2.83;;;12.90;99.90;;;;;;6180919;23;20419;-73
2022/09/26 09:15:43;;;;;;;5.63;2.30;;;12.60;99.90;;;;;;6181018;23;19998;-73
2022/09/26 09:18:28;;;;;;;5.78;2.83;;;12.70;99.90;;;;;;6179597;23;20012;-73
2022/09/26 09:21:18;;;;;;;8.15;2.85;;;12.60;99.90;;;;;;6180838;23;20009;-74
2022/09/26 09:23:52;;;;;;;5.90;3.20;;;12.60;99.90;;;;;;6180386;23;20012;-73
2022/09/26 09:26:23;;;;;;;3.90;2.35;;;12.80;99.90;;;;;;6181274;23;20008;-72
2022/09/26 09:29:06;;;;;;;6.50;3.50;;;12.80;99.90;;;;;;6179759;23;20023;-73
2022/09/26 09:31:38;;;;;;;6.82;3.47;;;12.40;99.90;;;;;;6179344;23;20427;-72
2022/09/26 09:34:09;;;;;;;8.73;4.35;;;12.80;99.90;;;;;;6179513;23;20013;-73
2022/09/26 09:36:43;;;;;;;7.55;3.42;;;12.80;99.90;;;;;;6180280;23;20442;-73
2022/09/26 09:39:12;;;;;;;;;;;12.70;99.90;;;;;;6177739;23;20060;-73
2022/09/26 09:41:47;;;;;;;5.32;2.80;;;12.70;99.90;;;;;;6178915;23;19904;-73
2022/09/26 09:44:21;;;;;;;6.38;2.80;;;12.80;99.90;;;;;;6181053;23;20383;-72
2022/09/26 09:46:49;;;;;;;5.43;2.95;;;12.90;99.90;;;;;;6181680;23;20005;-72
2022/09/26 09:49:23;;;;;;;7.47;2.78;;;12.90;99.90;;;;;;6180747;23;20057;-73
2022/09/26 09:51:57;;;;;;;6.85;3.25;;;14.30;99.90;;;;;;6179617;23;20079;-73
2022/09/26 09:54:34;;;;;;;6.80;3.22;;;13.00;99.90;;;;;;6182211;23;20043;-72
2022/09/26 09:57:21;;;;;;;7.45;3.67;;;13.00;99.90;;;;;;6181218;23;20001;-72
2022/09/26 09:59:55;;;;;;;5.07;3.40;;;13.00;99.90;;;;;;6180495;23;20012;-72
2022/09/26 10:02:40;;;;;;;8.23;3.20;;;13.10;99.90;;;;;;6181840;23;20036;-73
2022/09/26 10:05:23;;;;;;;9.20;3.88;;;13.00;99.90;;;;;;6182674;23;20055;-73
2022/09/26 10:07:56;;;;;;;7.35;3.30;;;13.00;99.90;;;;;;6181872;23;20434;-72
2022/09/26 10:10:27;;;;;;;8.73;3.97;;;14.00;99.90;;;;;;6181838;23;20460;-72
2022/09/26 10:12:53;;;;;;;3.20;2.85;;;13.00;99.90;;;;;;6181881;23;20347;-73
2022/09/26 10:15:21;;;;;;;5.38;3.50;;;12.90;99.90;;;;;;6182300;23;20427;-72
2022/09/26 10:18:04;;;;;;;4.32;3.50;;;13.10;99.90;;;;;;6181936;23;20032;-72
2022/09/26 10:20:51;;;;;;;8.63;3.58;;;13.10;99.90;;;;;;6181714;23;20001;-72
2022/09/26 10:23:23;;;;;;;11.10;3.67;;;14.40;99.90;;;;;;6181353;23;20023;-73
2022/09/26 10:25:50;;;;;;;8.07;3.47;;;13.00;99.90;;;;;;6181839;23;20005;-72
2022/09/26 10:28:28;;;;;;;8.55;3.70;;;13.00;99.90;;;;;;6182281;23;20410;-72
2022/09/26 10:30:59;;;;;;;6.22;3.72;;;13.00;99.90;;;;;;6180818;23;20079;-72
2022/09/26 10:33:29;;;;;;;7.38;4.43;;;12.90;99.90;;;;;;6179297;23;20008;-72
2022/09/26 10:36:06;;;;;;;6.03;3.63;;;12.90;99.90;;;;;;6180412;23;20383;-72
2022/09/26 10:38:31;;;;;;;7.10;3.45;;;12.90;99.90;;;;;;6182081;23;20016;-72
2022/09/26 10:41:00;;;;;;;7.15;4.40;;;12.80;99.90;;;;;;6181630;23;20001;-72
2022/09/26 10:43:36;;;;;;;6.22;4.20;;;12.80;99.90;;;;;;6180182;23;20137;-72
2022/09/26 10:46:14;;;;;;;8.77;4.28;;;12.80;99.90;;;;;;6181879;23;19998;-72
2022/09/26 10:48:47;;;;;;;8.60;3.95;;;12.70;99.90;;;;;;6181579;23;20075;-72
2022/09/26 10:51:34;;;;;;;8.43;4.20;;;12.60;99.90;;;;;;6181321;23;20005;-72
2022/09/26 10:54:07;;;;;;;5.57;4.07;;;12.60;99.90;;;;;;6180723;23;20430;-72
2022/09/26 10:56:40;;;;;;;6.37;3.87;;;12.60;99.90;;;;;;6180591;23;20055;-72
2022/09/26 10:59:09;;;;;;;6.32;4.15;;;12.50;99.90;;;;;;6180438;23;20001;-72
2022/09/26 11:01:42;;;;;;;7.65;4.00;;;12.50;99.90;;;;;;6181291;23;20012;-75
2022/09/26 11:05:55;;;;;;;8.50;4.63;;;12.50;99.90;;;;;;6181290;23;20281;-74
2022/09/26 11:07:01;;;;;;;8.82;4.63;;;12.70;99.90;;;;;;6180248;23;20017;-73
2022/09/26 11:09:26;;;;;;;8.73;5.13;;;12.60;99.90;;;;;;6180108;23;20015;-72
2022/09/26 11:11:54;;;;;;;6.97;4.63;;;12.60;99.90;;;;;;6181609;23;20001;-72
2022/09/26 11:14:27;;;;;;;9.43;5.13;;;12.60;99.90;;;;;;6181797;23;20036;-72
2022/09/26 11:16:55;;;;;;;11.52;5.70;;;12.60;99.90;;;;;;6179685;23;20016;-72
2022/09/26 11:19:31;;;;;;;5.75;3.53;;;12.60;99.90;;;;;;6180844;23;20016;-73
2022/09/26 11:22:00;;;;;;;5.80;4.32;;;12.70;99.90;;;;;;6180982;23;20012;-73
2022/09/26 11:24:44;;;;;;;4.40;3.85;;;12.60;99.90;;;;;;6181034;23;20029;-72
2022/09/26 11:27:49;;;;;;;10.00;4.38;;;12.60;99.90;;;;;;6179676;23;20788;-72
2022/09/26 11:30:20;;;;;;;5.97;4.43;;;12.50;99.90;;;;;;6181095;23;20032;-72
2022/09/26 11:32:54;;;;;;;8.43;4.38;;;13.00;99.90;;;;;;6180945;23;20005;-72
2022/09/26 11:35:32;;;;;;;9.52;4.50;;;12.80;99.90;;;;;;6180892;23;20058;-73
2022/09/26 11:38:11;;;;;;;6.88;3.20;;;12.70;99.90;;;;;;6179225;23;20001;-73
2022/09/26 11:41:17;;;;;;;4.75;3.35;;;12.60;99.90;;;;;;6178806;23;20021;-72
2022/09/26 11:43:45;;;;;;;;;;;12.50;99.90;;;;;;6181685;23;20009;-72
2022/09/26 11:46:45;;;;;;;3.83;3.42;;;12.40;99.90;;;;;;6180217;23;19912;-72
2022/09/26 11:49:41;;;;;;;4.75;3.42;;;12.60;99.90;;;;;;6179077;23;20001;-73
2022/09/26 11:52:18;;;;;;;7.57;3.83;;;12.50;99.90;;;;;;6181222;23;20001;-72
2022/09/26 11:55:26;;;;;;;4.50;3.33;;;12.60;99.90;;;;;;6181106;23;20001;-72
2022/09/26 11:58:07;;;;;;;7.22;4.40;;;12.70;99.90;;;;;;6181460;23;20005;-72
2022/09/26 12:01:11;;;;;;;5.85;4.10;;;12.50;99.90;;;;;;6179989;23;20011;-72
2022/09/26 12:04:14;;;;;;;6.03;3.55;;;12.50;99.90;;;;;;6180164;23;20035;-73
2022/09/26 12:07:00;;;;;;;7.85;4.60;;;12.50;99.90;;;;;;6180050;23;20005;-73
2022/09/26 12:09:36;;;;;;;5.63;3.83;;;12.60;99.90;;;;;;6179604;23;20029;-74
2022/09/26 12:12:28;;;;;;;5.45;3.70;;;12.60;99.90;;;;;;6180850;23;20001;-73
2022/09/26 12:15:26;;;;;;;10.82;3.78;;;12.60;99.90;;;;;;6179791;23;20055;-73
2022/09/26 12:18:39;;;;;;;7.32;3.60;;;12.60;99.90;;;;;;6180434;23;20001;-73
2022/09/26 12:21:26;;;;;;;5.13;3.33;;;12.70;99.90;;;;;;6152566;23;20005;-74
2022/09/26 12:23:56;;;;;;;6.38;3.50;;;12.70;99.90;;;;;;6180336;23;19997;-73
2022/09/26 12:26:36;;;;;;;5.00;3.33;;;12.70;99.90;;;;;;6177904;23;20064;-73
2022/09/26 12:29:11;;;;;;;7.95;3.55;;;12.70;99.90;;;;;;6179221;23;20025;-73
2022/09/26 12:32:07;;;;;;;6.63;2.95;;;12.70;99.90;;;;;;6178551;23;20005;-73
2022/09/26 12:35:17;;;;;;;5.78;2.67;;;12.70;99.90;;;;;;6180807;23;20047;-73
2022/09/26 12:38:06;;;;;;;6.10;3.40;;;12.80;99.90;;;;;;6180119;23;20288;-73
2022/09/26 12:40:56;;;;;;;3.90;3.05;;;12.80;99.90;;;;;;6180960;23;20016;-73
2022/09/26 12:43:34;;;;;;;4.47;2.88;;;12.80;99.90;;;;;;6179052;23;20005;-74
2022/09/26 12:46:24;;;;;;;7.85;3.60;;;12.70;99.90;;;;;;6179716;23;20001;-73
2022/09/26 12:49:28;;;;;;;4.45;2.65;;;12.80;99.90;;;;;;6180763;23;20672;-74
2022/09/26 12:52:13;;;;;;;6.67;2.80;;;12.80;99.90;;;;;;6060483;23;20014;-73
2022/09/26 12:55:06;;;;;;;4.78;3.20;;;12.80;99.90;;;;;;6060670;23;20043;-73
2022/09/26 12:58:00;;;;;;;5.38;2.60;;;12.80;99.90;;;;;;6060249;23;20035;-73
2022/09/26 13:00:32;;;;;;;4.13;3.03;;;12.90;99.90;;;;;;6060512;23;20051;-73
2022/09/26 13:03:25;;;;;;;3.17;2.70;;;12.90;99.90;;;;;;6060132;23;20006;-73
2022/09/26 13:06:13;;;;;;;2.50;2.22;;;12.90;99.90;;;;;;6059599;23;20022;-73
2022/09/26 13:09:09;;;;;;;3.38;2.70;;;13.00;99.90;;;;;;6058779;23;20007;-73
2022/09/26 13:11:55;;;;;;;3.42;2.20;;;13.00;99.90;;;;;;6036891;23;20058;-73
2022/09/26 13:14:37;;;;;;;2.30;1.80;;;13.10;99.90;;;;;;6060480;23;20010;-75
2022/09/26 13:17:18;;;;;;;6.57;2.63;;;13.20;99.90;;;;;;6060766;23;20038;-73
2022/09/26 13:19:57;;;;;;;5.13;1.90;;;13.10;99.90;;;;;;6038017;23;20098;-73
2022/09/26 13:22:44;;;;;;;3.05;2.03;;;13.10;99.90;;;;;;6062985;23;20503;-73
2022/09/26 13:25:09;;;;;;;2.78;2.05;;;13.10;99.90;;;;;;6062910;23;20441;-73
2022/09/26 13:27:42;;;;;;;3.95;2.30;;;13.10;99.90;;;;;;6131361;23;20005;-73
2022/09/26 13:30:23;;;;;;;2.67;2.03;;;13.00;99.90;;;;;;6182178;23;20017;-73
2022/09/26 13:33:04;;;;;;;3.42;1.88;;;13.10;99.90;;;;;;6182935;23;20011;-73